Time;durP1;ratioP1;P1;durP2;ratioP2;P2;SDS_P1;SDS_P2;PMS_P1;PMS_P2;Temp;Humidity;BMP_temperature;BMP_pressure;BME280_temperature;BME280_humidity;BME280_pressure;Samples;Min_cycle;Max_cycle;Signal;HPM_P1;HPM_P2
2021/12/02 00:01:05;;;;;;;4.10;3.80;;;;;;;;;;5096473;28;20440;-84
2021/12/02 00:03:31;;;;;;;2.77;2.57;;;;;;;;;;5093298;28;20892;-84
2021/12/02 00:05:57;;;;;;;3.40;3.20;;;;;;;;;;5095628;28;20451;-85
2021/12/02 00:08:23;;;;;;;3.33;3.00;;;;;;;;;;5092355;28;20458;-84
2021/12/02 00:10:49;;;;;;;3.37;3.17;;;;;;;;;;5074991;28;20416;-85
2021/12/02 00:13:20;;;;;;;27.13;3.60;;;;;;;;;;5075427;28;20424;-85
2021/12/02 00:16:07;;;;;;;3.33;3.10;;;;;;;;;;5074348;28;20448;-83
2021/12/02 00:21:03;;;;;;;4.93;2.83;;;;;;;;;;5073336;28;20449;-83
2021/12/02 00:21:28;;;;;;;3.10;2.90;;;;;;;;;;5075578;28;20483;-85
2021/12/02 00:24:03;;;;;;;3.07;2.73;;;;;;;;;;5074140;28;20439;-84
2021/12/02 00:26:29;;;;;;;4.23;2.80;;;;;;;;;;5074659;28;20421;-84
2021/12/02 00:28:56;;;;;;;2.30;2.20;;;;;;;;;;5072928;28;20825;-83
2021/12/02 00:31:23;;;;;;;2.60;2.50;;;;;;;;;;5074668;28;20857;-83
2021/12/02 00:33:51;;;;;;;2.53;2.43;;;;;;;;;;5071976;28;20413;-84
2021/12/02 00:36:18;;;;;;;3.20;3.00;;;;;;;;;;5073240;28;20917;-84
2021/12/02 00:38:46;;;;;;;2.63;2.43;;;;;;;;;;5073511;28;20460;-83
2021/12/02 00:41:13;;;;;;;2.90;2.73;;;;;;;;;;5072498;28;20921;-83
2021/12/02 00:43:39;;;;;;;2.53;2.33;;;;;;;;;;5073211;28;20401;-84
2021/12/02 00:46:08;;;;;;;5.33;2.97;;;;;;;;;;5073798;28;20457;-84
2021/12/02 00:48:35;;;;;;;3.63;2.57;;;;;;;;;;5074304;28;20401;-85
2021/12/02 00:51:01;;;;;;;7.03;2.60;;;;;;;;;;5074777;28;20413;-84
2021/12/02 00:53:27;;;;;;;2.33;2.23;;;;;;;;;;5071780;28;20468;-83
2021/12/02 00:55:54;;;;;;;12.40;3.10;;;;;;;;;;5074090;28;20430;-84
2021/12/02 00:58:23;;;;;;;4.50;2.57;;;;;;;;;;5072502;28;20462;-83
2021/12/02 01:00:50;;;;;;;5.77;3.30;;;;;;;;;;5073230;28;20979;-84
2021/12/02 01:03:17;;;;;;;3.67;3.03;;;;;;;;;;5071015;28;20401;-84
2021/12/02 01:05:43;;;;;;;2.77;2.60;;;;;;;;;;5073185;28;20425;-83
2021/12/02 01:08:09;;;;;;;3.93;2.80;;;;;;;;;;5074404;28;20747;-84
2021/12/02 01:10:35;;;;;;;3.80;2.43;;;;;;;;;;5072493;28;20419;-83
2021/12/02 01:13:01;;;;;;;3.17;2.97;;;;;;;;;;5073460;28;20413;-85
2021/12/02 01:15:27;;;;;;;9.10;3.73;;;;;;;;;;5074822;28;20933;-84
2021/12/02 01:17:53;;;;;;;6.57;2.90;;;;;;;;;;5073901;28;20425;-85
2021/12/02 01:20:19;;;;;;;3.53;3.23;;;;;;;;;;5073762;28;20457;-84
2021/12/02 01:22:47;;;;;;;7.10;3.10;;;;;;;;;;5074574;28;20493;-85
2021/12/02 01:25:13;;;;;;;6.70;2.77;;;;;;;;;;5074238;28;20425;-84
2021/12/02 01:27:41;;;;;;;7.60;3.40;;;;;;;;;;5074449;28;21014;-84
2021/12/02 01:30:07;;;;;;;7.47;3.23;;;;;;;;;;5074995;28;20501;-84
2021/12/02 01:32:34;;;;;;;6.50;3.47;;;;;;;;;;5071393;28;20880;-83
2021/12/02 01:35:04;;;;;;;4.77;3.07;;;;;;;;;;5075879;28;20426;-83
2021/12/02 01:37:30;;;;;;;5.33;3.37;;;;;;;;;;5094984;28;20491;-85
2021/12/02 01:39:56;;;;;;;4.50;2.57;;;;;;;;;;5080282;28;20472;-84
2021/12/02 01:42:25;;;;;;;3.93;2.60;;;;;;;;;;5093494;28;20448;-84
2021/12/02 01:44:56;;;;;;;4.20;3.13;;;;;;;;;;5095130;28;20439;-84
2021/12/02 01:47:23;;;;;;;3.30;3.07;;;;;;;;;;5094706;28;20400;-85
2021/12/02 01:49:53;;;;;;;3.23;2.93;;;;;;;;;;5094619;28;20408;-84
2021/12/02 01:52:21;;;;;;;2.60;2.50;;;;;;;;;;5093454;28;20424;-84
2021/12/02 01:54:47;;;;;;;2.90;2.70;;;;;;;;;;5094406;28;20431;-84
2021/12/02 01:57:22;;;;;;;2.37;2.27;;;;;;;;;;5094864;28;20518;-84
2021/12/02 01:59:52;;;;;;;3.00;2.77;;;;;;;;;;5093951;28;20455;-84
2021/12/02 02:02:21;;;;;;;3.00;2.73;;;;;;;;;;5093139;28;20409;-84
2021/12/02 02:04:47;;;;;;;2.77;2.57;;;;;;;;;;5093223;28;20748;-84
2021/12/02 02:07:14;;;;;;;2.90;2.80;;;;;;;;;;5094312;28;20401;-85
2021/12/02 02:09:40;;;;;;;3.43;3.03;;;;;;;;;;5078085;28;20792;-85
2021/12/02 02:12:11;;;;;;;3.30;3.17;;;;;;;;;;5072839;28;20424;-84
2021/12/02 02:14:40;;;;;;;3.67;3.33;;;;;;;;;;5085194;28;20481;-84
2021/12/02 02:17:18;;;;;;;7.13;2.33;;;;;;;;;;5094094;28;20521;-84
2021/12/02 02:19:44;;;;;;;3.33;3.00;;;;;;;;;;5093772;28;20517;-84
2021/12/02 02:22:12;;;;;;;3.47;3.10;;;;;;;;;;5091125;28;20409;-83
2021/12/02 02:24:38;;;;;;;3.73;3.53;;;;;;;;;;5093049;28;20945;-83
2021/12/02 02:27:05;;;;;;;4.50;3.63;;;;;;;;;;5096429;28;20417;-84
2021/12/02 02:29:31;;;;;;;2.83;2.73;;;;;;;;;;5097742;28;20943;-83
2021/12/02 02:31:57;;;;;;;4.07;2.97;;;;;;;;;;5094273;28;20420;-85
2021/12/02 02:34:24;;;;;;;3.60;3.40;;;;;;;;;;5097356;28;20489;-85
2021/12/02 02:37:03;;;;;;;12.80;3.33;;;;;;;;;;5096811;28;20431;-84
2021/12/02 02:39:30;;;;;;;3.97;3.37;;;;;;;;;;5083719;28;20477;-84
2021/12/02 02:41:59;;;;;;;5.73;3.67;;;;;;;;;;5075190;28;20439;-85
2021/12/02 02:44:26;;;;;;;11.33;3.43;;;;;;;;;;5076379;28;20422;-85
2021/12/02 02:46:52;;;;;;;5.60;2.53;;;;;;;;;;5077142;28;20464;-84
2021/12/02 02:49:18;;;;;;;2.73;2.63;;;;;;;;;;5075748;28;20406;-83
2021/12/02 02:51:45;;;;;;;3.13;2.93;;;;;;;;;;5076071;28;20972;-83
2021/12/02 02:54:14;;;;;;;4.30;2.30;;;;;;;;;;5073574;28;20525;-84
2021/12/02 02:56:54;;;;;;;6.93;3.30;;;;;;;;;;5076697;28;20418;-84
2021/12/02 02:59:32;;;;;;;11.53;2.60;;;;;;;;;;5076029;28;20552;-84
2021/12/02 03:09:51;;;;;;;4.87;2.70;;;;;;;;;;5083529;28;20422;-84
2021/12/02 03:12:39;;;;;;;11.40;4.03;;;;;;;;;;5093917;28;20404;-83
2021/12/02 03:17:32;;;;;;;3.40;2.53;;;;;;;;;;5096559;28;20487;-84
2021/12/02 03:19:58;;;;;;;3.03;2.83;;;;;;;;;;5096152;28;20465;-83
2021/12/02 03:22:25;;;;;;;2.83;2.73;;;;;;;;;;5093465;28;20416;-83
2021/12/02 03:24:51;;;;;;;2.47;2.37;;;;;;;;;;5095264;28;20894;-85
2021/12/02 03:27:17;;;;;;;4.10;2.80;;;;;;;;;;5095659;28;20883;-84
2021/12/02 03:29:43;;;;;;;8.13;2.80;;;;;;;;;;5095297;28;20425;-84
2021/12/02 03:32:10;;;;;;;3.23;3.00;;;;;;;;;;5092908;28;20418;-84
2021/12/02 03:34:36;;;;;;;3.20;3.10;;;;;;;;;;5094165;28;20453;-83
2021/12/02 03:37:03;;;;;;;5.97;4.70;;;;;;;;;;5094656;28;20499;-83
2021/12/02 03:39:29;;;;;;;4.23;3.97;;;;;;;;;;5080270;28;20480;-84
2021/12/02 03:41:55;;;;;;;5.23;4.93;;;;;;;;;;5073637;28;20888;-84
2021/12/02 03:44:22;;;;;;;4.00;3.90;;;;;;;;;;5075187;28;20421;-84
2021/12/02 03:46:51;;;;;;;3.53;3.43;;;;;;;;;;5075021;28;20489;-83
2021/12/02 03:49:17;;;;;;;4.30;3.97;;;;;;;;;;5073989;28;20433;-83
2021/12/02 03:51:43;;;;;;;6.73;3.20;;;;;;;;;;5075542;28;20508;-84
2021/12/02 03:54:09;;;;;;;11.17;4.07;;;;;;;;;;5073820;28;20405;-83
2021/12/02 03:56:35;;;;;;;5.77;5.20;;;;;;;;;;5074157;28;20420;-83
2021/12/02 03:59:01;;;;;;;7.80;4.03;;;;;;;;;;5076144;28;20452;-84
2021/12/02 04:01:27;;;;;;;3.77;3.10;;;;;;;;;;5076146;28;20980;-84
2021/12/02 04:03:53;;;;;;;4.30;4.00;;;;;;;;;;5074189;28;20421;-84
2021/12/02 04:06:20;;;;;;;4.47;4.23;;;;;;;;;;5073874;28;20448;-84
2021/12/02 04:09:01;;;;;;;13.47;4.50;;;;;;;;;;5074518;28;20413;-84
2021/12/02 04:11:35;;;;;;;4.27;3.90;;;;;;;;;;5075095;28;20406;-84
2021/12/02 04:16:52;;;;;;;3.40;3.23;;;;;;;;;;5075811;28;20527;-84
2021/12/02 04:19:18;;;;;;;3.33;3.10;;;;;;;;;;5077531;28;20534;-84
2021/12/02 04:21:44;;;;;;;3.10;2.80;;;;;;;;;;5074568;28;20413;-84
2021/12/02 04:24:10;;;;;;;3.33;3.23;;;;;;;;;;5072229;28;20410;-85
2021/12/02 04:26:39;;;;;;;5.70;4.07;;;;;;;;;;5076435;28;20421;-82
2021/12/02 04:29:05;;;;;;;5.23;3.00;;;;;;;;;;5073700;28;20931;-84
2021/12/02 04:31:31;;;;;;;5.13;3.70;;;;;;;;;;5074369;28;20441;-84
2021/12/02 04:33:57;;;;;;;13.33;2.90;;;;;;;;;;5091149;28;20447;-84
2021/12/02 04:36:23;;;;;;;4.00;2.67;;;;;;;;;;5095777;28;20409;-84
2021/12/02 04:38:49;;;;;;;3.27;2.63;;;;;;;;;;5088110;28;20813;-85
2021/12/02 04:41:17;;;;;;;3.60;3.30;;;;;;;;;;5076130;28;20421;-84
2021/12/02 04:43:43;;;;;;;4.50;3.30;;;;;;;;;;5073561;28;20398;-83
2021/12/02 04:46:09;;;;;;;3.33;2.23;;;;;;;;;;5074451;28;20467;-83
2021/12/02 04:48:35;;;;;;;9.43;2.50;;;;;;;;;;5075315;28;20409;-84
2021/12/02 04:51:01;;;;;;;4.57;3.37;;;;;;;;;;5073795;28;20481;-83
2021/12/02 04:53:27;;;;;;;6.83;2.83;;;;;;;;;;5084822;28;20764;-84
2021/12/02 04:55:53;;;;;;;5.40;2.70;;;;;;;;;;5089643;28;20436;-83
2021/12/02 04:58:19;;;;;;;2.47;2.37;;;;;;;;;;5083281;28;20477;-83
2021/12/02 05:00:46;;;;;;;2.67;2.57;;;;;;;;;;5082651;28;20910;-83
2021/12/02 05:03:12;;;;;;;2.77;2.60;;;;;;;;;;5081310;28;20406;-83
2021/12/02 05:05:38;;;;;;;4.07;3.77;;;;;;;;;;5082367;28;20432;-83
2021/12/02 05:08:04;;;;;;;3.73;3.43;;;;;;;;;;5083256;28;20496;-84
2021/12/02 05:10:31;;;;;;;8.20;4.23;;;;;;;;;;5080567;28;20492;-84
2021/12/02 05:12:57;;;;;;;3.83;3.27;;;;;;;;;;5089810;28;20408;-83
2021/12/02 05:15:23;;;;;;;3.73;3.43;;;;;;;;;;5094986;28;20425;-84
2021/12/02 05:17:49;;;;;;;6.57;3.70;;;;;;;;;;5094503;28;20999;-84
2021/12/02 05:20:15;;;;;;;8.00;2.87;;;;;;;;;;5076371;28;20460;-84
2021/12/02 05:22:41;;;;;;;3.17;2.97;;;;;;;;;;5072707;28;20880;-84
2021/12/02 05:25:07;;;;;;;3.37;3.17;;;;;;;;;;5077119;28;20519;-84
2021/12/02 05:27:33;;;;;;;2.90;2.80;;;;;;;;;;5094016;28;20425;-84
2021/12/02 05:29:59;;;;;;;2.80;2.70;;;;;;;;;;5095099;28;20421;-82
2021/12/02 05:32:30;;;;;;;2.93;2.80;;;;;;;;;;5090298;28;20551;-82
2021/12/02 05:34:56;;;;;;;3.80;2.80;;;;;;;;;;5075011;28;20502;-82
2021/12/02 05:37:22;;;;;;;3.80;2.87;;;;;;;;;;5080040;28;20428;-82
2021/12/02 05:39:47;;;;;;;3.80;3.60;;;;;;;;;;5074698;28;20468;-83
2021/12/02 05:42:14;;;;;;;5.33;3.13;;;;;;;;;;5068234;28;20932;-83
2021/12/02 05:44:40;;;;;;;6.10;4.20;;;;;;;;;;5071433;28;20426;-83
2021/12/02 05:47:06;;;;;;;2.90;2.70;;;;;;;;;;5071203;28;20402;-83
2021/12/02 05:49:32;;;;;;;5.17;2.90;;;;;;;;;;5071311;28;20401;-83
2021/12/02 05:51:58;;;;;;;3.87;2.93;;;;;;;;;;5070912;28;20417;-82
2021/12/02 05:54:24;;;;;;;2.50;2.40;;;;;;;;;;5071493;28;20417;-82
2021/12/02 05:56:50;;;;;;;2.20;2.20;;;;;;;;;;5071494;28;20459;-82
2021/12/02 05:59:16;;;;;;;3.40;3.10;;;;;;;;;;5071243;28;20506;-82
2021/12/02 06:01:42;;;;;;;5.13;3.40;;;;;;;;;;5086803;28;20425;-82
2021/12/02 06:04:12;;;;;;;3.80;2.70;;;;;;;;;;5096442;28;20756;-82
2021/12/02 06:06:38;;;;;;;3.40;3.30;;;;;;;;;;5095634;28;20778;-83
2021/12/02 06:09:04;;;;;;;3.50;2.77;;;;;;;;;;5083608;28;20527;-82
2021/12/02 06:11:30;;;;;;;4.20;3.90;;;;;;;;;;5074957;28;20413;-83
2021/12/02 06:13:57;;;;;;;8.37;3.47;;;;;;;;;;5075160;28;20501;-82
2021/12/02 06:16:23;;;;;;;3.80;3.50;;;;;;;;;;5075483;28;20501;-82
2021/12/02 06:18:49;;;;;;;3.13;3.03;;;;;;;;;;5088143;28;20948;-82
2021/12/02 06:21:15;;;;;;;5.27;3.97;;;;;;;;;;5097750;28;20876;-86
2021/12/02 06:23:41;;;;;;;3.13;3.03;;;;;;;;;;5096558;28;20417;-84
2021/12/02 06:26:08;;;;;;;4.40;3.30;;;;;;;;;;5095432;28;20464;-82
2021/12/02 06:28:34;;;;;;;3.63;3.43;;;;;;;;;;5095961;28;20413;-82
2021/12/02 06:31:02;;;;;;;3.83;3.73;;;;;;;;;;5098871;28;20454;-85
2021/12/02 06:33:29;;;;;;;6.73;3.77;;;;;;;;;;5079335;28;20421;-82
2021/12/02 06:35:55;;;;;;;11.53;4.43;;;;;;;;;;5074620;28;20491;-82
2021/12/02 06:38:21;;;;;;;3.50;3.40;;;;;;;;;;5074996;28;20409;-83
2021/12/02 06:40:47;;;;;;;5.97;4.93;;;;;;;;;;5074394;28;20568;-83
2021/12/02 06:43:15;;;;;;;7.33;4.87;;;;;;;;;;5072190;28;20417;-85
2021/12/02 06:45:41;;;;;;;4.07;3.77;;;;;;;;;;5075309;28;20462;-83
2021/12/02 06:48:07;;;;;;;4.50;4.30;;;;;;;;;;5072376;28;20445;-82
2021/12/02 06:50:36;;;;;;;4.70;3.60;;;;;;;;;;5080223;28;20475;-85
2021/12/02 06:53:02;;;;;;;5.50;5.00;;;;;;;;;;5083294;28;20468;-83
2021/12/02 06:55:28;;;;;;;6.03;5.60;;;;;;;;;;5096579;28;20450;-84
2021/12/02 06:57:54;;;;;;;4.07;3.87;;;;;;;;;;5080303;28;20459;-82
2021/12/02 07:00:21;;;;;;;4.43;3.23;;;;;;;;;;5082954;28;20559;-82
2021/12/02 07:02:47;;;;;;;3.73;3.50;;;;;;;;;;5090802;28;20500;-82
2021/12/02 07:05:15;;;;;;;3.63;3.43;;;;;;;;;;5094724;28;20428;-82
2021/12/02 07:07:41;;;;;;;3.20;3.10;;;;;;;;;;5082009;28;20534;-82
2021/12/02 07:10:08;;;;;;;3.77;3.60;;;;;;;;;;5074701;28;20421;-85
2021/12/02 07:12:36;;;;;;;5.40;3.40;;;;;;;;;;5072273;28;20524;-82
2021/12/02 07:15:11;;;;;;;3.80;3.70;;;;;;;;;;5076296;28;20449;-82
2021/12/02 07:17:37;;;;;;;7.40;6.33;;;;;;;;;;5076848;28;20417;-82
2021/12/02 07:20:03;;;;;;;4.70;4.43;;;;;;;;;;5077254;28;20453;-82
2021/12/02 07:22:29;;;;;;;20.47;5.20;;;;;;;;;;5075027;28;20417;-82
2021/12/02 07:24:56;;;;;;;11.33;5.20;;;;;;;;;;5074728;28;20460;-82
2021/12/02 07:27:22;;;;;;;6.17;4.40;;;;;;;;;;5076496;28;20413;-81
2021/12/02 07:35:32;;;;;;;11.63;5.93;;;;;;;;;;5110281;27;20599;-84
2021/12/02 07:38:00;;;;;;;8.67;4.63;;;;;;;;;;5070550;28;20429;-86
2021/12/02 07:40:27;;;;;;;6.83;5.00;;;;;;;;;;5087561;28;20405;-83
2021/12/02 07:42:53;;;;;;;8.87;5.90;;;;;;;;;;5089939;28;20412;-83
2021/12/02 07:45:21;;;;;;;7.53;6.43;;;;;;;;;;5085353;28;20440;-84
2021/12/02 07:47:48;;;;;;;12.07;5.10;;;;;;;;;;5076213;28;20512;-83
2021/12/02 07:50:15;;;;;;;6.63;4.80;;;;;;;;;;5068317;28;20414;-83
2021/12/02 07:52:46;;;;;;;9.03;6.27;;;;;;;;;;5083109;28;20433;-84
2021/12/02 07:55:13;;;;;;;3.97;3.77;;;;;;;;;;5083901;28;20538;-84
2021/12/02 07:57:41;;;;;;;6.23;5.60;;;;;;;;;;5085881;28;20436;-83
2021/12/02 08:00:07;;;;;;;7.03;4.90;;;;;;;;;;5077466;28;20543;-83
2021/12/02 08:02:35;;;;;;;5.60;5.07;;;;;;;;;;5069319;28;20437;-84
2021/12/02 08:05:01;;;;;;;5.20;4.70;;;;;;;;;;5080206;28;20492;-84
2021/12/02 08:07:27;;;;;;;7.53;5.00;;;;;;;;;;5080981;28;20951;-84
2021/12/02 08:09:53;;;;;;;11.83;5.53;;;;;;;;;;5080988;28;20424;-83
2021/12/02 08:12:19;;;;;;;5.63;4.60;;;;;;;;;;5107403;28;20432;-82
2021/12/02 08:14:45;;;;;;;4.80;4.40;;;;;;;;;;5074535;28;20584;-82
2021/12/02 08:17:11;;;;;;;12.33;6.60;;;;;;;;;;5074953;28;20480;-82
2021/12/02 08:19:37;;;;;;;11.47;5.90;;;;;;;;;;5076052;28;20859;-82
2021/12/02 08:22:03;;;;;;;6.27;5.40;;;;;;;;;;5074994;28;20475;-80
2021/12/02 08:24:29;;;;;;;7.00;5.00;;;;;;;;;;5074317;28;20525;-80
2021/12/02 08:26:55;;;;;;;5.50;5.00;;;;;;;;;;5076047;28;20413;-80
2021/12/02 08:29:22;;;;;;;7.07;4.60;;;;;;;;;;5076247;28;20905;-81
2021/12/02 08:31:49;;;;;;;5.10;4.80;;;;;;;;;;5072098;28;20456;-81
2021/12/02 08:34:17;;;;;;;10.23;5.00;;;;;;;;;;5088480;28;20471;-81
2021/12/02 08:36:50;;;;;;;4.10;3.90;;;;;;;;;;5091444;28;20466;-81
2021/12/02 08:39:18;;;;;;;5.13;4.83;;;;;;;;;;5092411;28;20419;-81
2021/12/02 08:41:48;;;;;;;4.37;4.17;;;;;;;;;;5094121;28;20420;-81
2021/12/02 08:44:15;;;;;;;4.73;4.33;;;;;;;;;;5092591;28;20967;-81
2021/12/02 08:46:41;;;;;;;4.00;3.80;;;;;;;;;;5061994;28;20422;-81
2021/12/02 08:49:07;;;;;;;3.80;3.63;;;;;;;;;;5062204;28;20418;-81
2021/12/02 08:51:33;;;;;;;3.30;3.20;;;;;;;;;;5061255;28;20529;-81
2021/12/02 08:54:00;;;;;;;6.53;5.03;;;;;;;;;;5076146;28;20804;-81
2021/12/02 08:56:26;;;;;;;6.20;5.23;;;;;;;;;;5075181;28;20425;-81
2021/12/02 08:58:52;;;;;;;5.53;4.70;;;;;;;;;;5077226;28;20429;-81
2021/12/02 09:01:19;;;;;;;5.27;4.83;;;;;;;;;;5075614;28;20911;-81
2021/12/02 09:03:45;;;;;;;8.60;4.27;;;;;;;;;;5074369;28;20483;-82
2021/12/02 09:06:11;;;;;;;7.97;4.53;;;;;;;;;;5077250;28;20545;-81
2021/12/02 09:08:39;;;;;;;5.80;5.13;;;;;;;;;;5074588;28;20486;-81
2021/12/02 09:11:05;;;;;;;7.17;4.83;;;;;;;;;;5062673;28;20457;-81
2021/12/02 09:13:32;;;;;;;9.53;5.60;;;;;;;;;;5057527;28;20810;-81
2021/12/02 09:15:58;;;;;;;5.43;4.77;;;;;;;;;;5056565;28;20561;-81
2021/12/02 09:18:24;;;;;;;5.60;5.10;;;;;;;;;;5058986;28;20422;-82
2021/12/02 09:20:50;;;;;;;6.27;5.10;;;;;;;;;;5056672;28;20468;-81
2021/12/02 09:23:16;;;;;;;6.20;5.60;;;;;;;;;;5057526;28;20407;-81
2021/12/02 09:25:43;;;;;;;6.37;5.77;;;;;;;;;;5058072;28;20434;-81
2021/12/02 09:28:10;;;;;;;6.90;6.20;;;;;;;;;;5057563;28;20450;-81
2021/12/02 09:30:36;;;;;;;10.00;6.13;;;;;;;;;;5053674;28;20426;-81
2021/12/02 09:33:03;;;;;;;6.70;6.03;;;;;;;;;;5060026;28;20449;-81
2021/12/02 09:35:29;;;;;;;8.53;5.47;;;;;;;;;;5058764;28;20466;-82
2021/12/02 09:37:55;;;;;;;5.73;5.10;;;;;;;;;;5058052;28;20445;-82
2021/12/02 09:40:21;;;;;;;6.97;6.30;;;;;;;;;;5069726;28;20522;-81
2021/12/02 09:42:47;;;;;;;5.20;4.90;;;;;;;;;;5063747;28;20429;-82
2021/12/02 09:45:14;;;;;;;5.10;4.80;;;;;;;;;;5067874;28;20449;-82
2021/12/02 09:47:43;;;;;;;6.67;5.80;;;;;;;;;;5058504;28;20735;-81
2021/12/02 09:50:13;;;;;;;6.80;6.20;;;;;;;;;;5058331;28;20402;-82
2021/12/02 09:52:41;;;;;;;11.00;6.40;;;;;;;;;;5066345;28;20429;-82
2021/12/02 09:57:58;;;;;;;15.80;7.57;;;;;;;;;;5068701;28;20433;-82
2021/12/02 10:00:37;;;;;;;13.37;7.70;;;;;;;;;;5058917;28;20468;-82
2021/12/02 10:03:07;;;;;;;12.07;8.33;;;;;;;;;;5074328;28;20425;-82
2021/12/02 10:05:44;;;;;;;9.87;7.10;;;;;;;;;;5068395;28;20430;-82
2021/12/02 10:08:12;;;;;;;9.00;7.20;;;;;;;;;;5067412;28;20421;-82
2021/12/02 10:10:51;;;;;;;10.30;6.93;;;;;;;;;;5071283;28;20432;-82
2021/12/02 10:13:29;;;;;;;8.47;7.67;;;;;;;;;;5060164;28;20476;-82
2021/12/02 10:16:04;;;;;;;8.70;7.63;;;;;;;;;;5058653;28;20468;-82
2021/12/02 10:18:52;;;;;;;6.53;6.10;;;;;;;;;;5075183;28;20447;-82
2021/12/02 10:21:24;;;;;;;7.80;6.23;;;;;;;;;;5078409;28;20408;-82
2021/12/02 10:23:53;;;;;;;6.47;5.97;;;;;;;;;;5078528;28;20420;-82
2021/12/02 10:26:19;;;;;;;7.03;6.43;;;;;;;;;;5079266;28;20993;-82
2021/12/02 10:28:47;;;;;;;12.10;5.50;;;;;;;;;;5079510;28;20401;-82
2021/12/02 10:31:18;;;;;;;7.60;6.67;;;;;;;;;;5076759;28;20444;-82
2021/12/02 10:33:46;;;;;;;6.70;6.20;;;;;;;;;;5063344;28;20560;-82
2021/12/02 10:36:23;;;;;;;7.40;6.70;;;;;;;;;;5057687;28;20446;-82
2021/12/02 10:38:51;;;;;;;7.80;6.63;;;;;;;;;;5077818;28;20425;-83
2021/12/02 10:41:18;;;;;;;10.53;7.03;;;;;;;;;;5070018;28;20425;-82
2021/12/02 10:44:03;;;;;;;14.43;7.20;;;;;;;;;;5077148;28;20474;-82
2021/12/02 10:46:29;;;;;;;16.90;6.37;;;;;;;;;;5056430;28;20917;-82
2021/12/02 10:48:55;;;;;;;6.90;6.40;;;;;;;;;;5058565;28;20418;-83
2021/12/02 10:51:34;;;;;;;9.47;6.50;;;;;;;;;;5056578;28;20501;-83
2021/12/02 10:54:03;;;;;;;7.73;7.13;;;;;;;;;;5072467;28;20467;-83
2021/12/02 10:56:34;;;;;;;8.17;7.37;;;;;;;;;;5066660;28;20422;-83
2021/12/02 10:59:20;;;;;;;8.47;7.53;;;;;;;;;;5065914;28;20491;-83
2021/12/02 11:01:46;;;;;;;10.33;6.57;;;;;;;;;;5073530;28;20409;-83
2021/12/02 11:04:13;;;;;;;6.23;5.73;;;;;;;;;;5075517;28;20418;-84
2021/12/02 11:06:43;;;;;;;7.03;5.90;;;;;;;;;;5075420;28;20884;-83
2021/12/02 11:09:27;;;;;;;6.63;6.03;;;;;;;;;;5085789;28;20410;-83
2021/12/02 11:12:07;;;;;;;5.97;5.37;;;;;;;;;;5073187;28;20417;-84
2021/12/02 11:14:33;;;;;;;7.07;6.33;;;;;;;;;;5075565;28;20465;-83
2021/12/02 11:17:33;;;;;;;7.20;6.57;;;;;;;;;;5059430;28;20430;-83
2021/12/02 11:20:05;;;;;;;25.20;6.80;;;;;;;;;;5054674;28;20407;-83
2021/12/02 11:22:31;;;;;;;6.37;5.77;;;;;;;;;;5053485;28;20426;-83
2021/12/02 11:24:59;;;;;;;10.63;7.73;;;;;;;;;;5054044;28;20453;-83
2021/12/02 11:27:31;;;;;;;7.47;6.80;;;;;;;;;;5054472;28;20454;-82
2021/12/02 11:30:06;;;;;;;10.73;6.13;;;;;;;;;;5061606;28;20426;-81
2021/12/02 11:32:34;;;;;;;9.30;7.67;;;;;;;;;;5055291;28;20440;-82
2021/12/02 11:35:03;;;;;;;5.70;5.40;;;;;;;;;;5066073;28;20476;-81
2021/12/02 11:37:29;;;;;;;7.13;6.57;;;;;;;;;;5072112;28;20417;-82
2021/12/02 11:39:57;;;;;;;8.00;7.20;;;;;;;;;;5073294;28;20413;-82
2021/12/02 11:42:24;;;;;;;14.53;6.17;;;;;;;;;;5073814;28;20405;-81
2021/12/02 11:44:50;;;;;;;7.93;7.13;;;;;;;;;;5076329;28;20428;-81
2021/12/02 11:47:16;;;;;;;10.37;8.07;;;;;;;;;;5075137;28;20402;-81
2021/12/02 11:49:42;;;;;;;12.33;8.37;;;;;;;;;;5082296;28;20934;-82
2021/12/02 11:52:09;;;;;;;8.00;7.30;;;;;;;;;;5086857;28;20417;-82
2021/12/02 11:54:36;;;;;;;9.47;6.73;;;;;;;;;;5074421;28;20465;-82
2021/12/02 11:57:03;;;;;;;11.73;7.20;;;;;;;;;;5061966;28;20418;-81
2021/12/02 11:59:29;;;;;;;12.70;6.77;;;;;;;;;;5053465;28;20402;-82
2021/12/02 12:01:59;;;;;;;7.40;6.03;;;;;;;;;;5053102;28;20442;-82
2021/12/02 12:04:25;;;;;;;13.10;5.97;;;;;;;;;;5054042;28;20449;-82
2021/12/02 12:06:53;;;;;;;11.33;7.10;;;;;;;;;;5071275;28;20421;-83
2021/12/02 12:09:21;;;;;;;8.67;7.80;;;;;;;;;;5072045;28;20504;-82
2021/12/02 12:11:48;;;;;;;9.60;7.10;;;;;;;;;;5069270;28;20415;-82
2021/12/02 12:14:19;;;;;;;17.10;8.13;;;;;;;;;;5051798;28;20501;-82
2021/12/02 12:16:46;;;;;;;10.50;7.67;;;;;;;;;;5064923;28;20425;-82
2021/12/02 12:19:18;;;;;;;7.73;6.90;;;;;;;;;;5066408;28;20426;-82
2021/12/02 12:21:45;;;;;;;6.83;6.17;;;;;;;;;;5077057;28;20440;-83
2021/12/02 12:24:15;;;;;;;8.23;7.10;;;;;;;;;;5077222;28;20477;-82
2021/12/02 12:26:44;;;;;;;7.10;6.40;;;;;;;;;;5078108;28;20425;-82
2021/12/02 12:29:12;;;;;;;17.93;6.90;;;;;;;;;;5081483;28;20496;-82
2021/12/02 12:32:00;;;;;;;10.37;7.83;;;;;;;;;;5079629;28;20409;-82
2021/12/02 12:41:31;;;;;;;3.67;3.47;;;;;;;;;;5115032;27;20538;-81
2021/12/02 12:43:57;;;;;;;4.60;4.27;;;;;;;;;;5113119;28;20534;-82
2021/12/02 12:46:23;;;;;;;4.10;3.80;;;;;;;;;;5027464;27;20464;-82
2021/12/02 12:48:49;;;;;;;4.07;3.80;;;;;;;;;;5066249;28;20489;-82
2021/12/02 12:51:17;;;;;;;7.57;4.73;;;;;;;;;;5056465;28;20423;-80
2021/12/02 12:53:45;;;;;;;4.30;4.03;;;;;;;;;;5049407;28;20810;-81
2021/12/02 12:56:13;;;;;;;4.57;4.03;;;;;;;;;;5059014;28;20886;-79
2021/12/02 12:58:40;;;;;;;3.27;3.17;;;;;;;;;;5064969;28;20813;-76
2021/12/02 13:01:22;;;;;;;3.23;3.13;;;;;;;;;;5066034;28;20951;-81
2021/12/02 13:04:06;;;;;;;273.63;109.63;;;;;;;;;;5059396;28;20786;-85
